Time;durP1;ratioP1;P1;durP2;ratioP2;P2;SDS_P1;SDS_P2;PMS_P1;PMS_P2;Temp;Humidity;BMP_temperature;BMP_pressure;BME280_temperature;BME280_humidity;BME280_pressure;Samples;Min_cycle;Max_cycle;Signal;HPM_P1;HPM_P2
2021/12/08 00:00:45;;;;;;;2.47;0.70;;;19.40;51.30;;;;;;5010059;28;20449;-82
2021/12/08 00:03:11;;;;;;;1.92;0.47;;;19.40;51.30;;;;;;5009859;28;20045;-82
2021/12/08 00:05:37;;;;;;;1.63;0.52;;;19.40;51.20;;;;;;5008689;28;20053;-82
2021/12/08 00:08:04;;;;;;;2.10;0.63;;;19.40;51.30;;;;;;5010220;28;20064;-82
2021/12/08 00:13:04;;;;;;;2.17;0.50;;;19.40;51.30;;;;;;5010175;28;20551;-82
2021/12/08 00:16:04;;;;;;;2.33;0.60;;;19.40;51.30;;;;;;5009786;28;20133;-82
2021/12/08 00:18:32;;;;;;;2.33;0.55;;;19.40;51.30;;;;;;4998391;28;20367;-82
2021/12/08 00:20:59;;;;;;;0.52;0.35;;;20.10;51.70;;;;;;5009570;28;20510;-83
2021/12/08 00:23:25;;;;;;;2.30;0.52;;;19.40;51.30;;;;;;5010078;28;20049;-83
2021/12/08 00:25:51;;;;;;;1.63;0.60;;;19.40;51.30;;;;;;4810761;28;5002106;-83
2021/12/08 00:28:16;;;;;;;1.63;0.68;;;19.40;51.30;;;;;;5009533;28;20037;-83
2021/12/08 00:30:43;;;;;;;2.47;0.50;;;19.40;51.40;;;;;;5009111;28;20128;-83
2021/12/08 00:33:09;;;;;;;1.40;0.50;;;19.40;51.30;;;;;;5009171;28;20077;-82
2021/12/08 00:35:35;;;;;;;2.13;0.52;;;19.40;51.40;;;;;;5009654;28;20073;-83
2021/12/08 00:38:01;;;;;;;1.52;0.40;;;19.40;51.30;;;;;;4992947;28;20057;-82
2021/12/08 00:40:27;;;;;;;0.80;0.35;;;19.40;51.40;;;;;;5009166;28;20054;-82
2021/12/08 00:42:53;;;;;;;1.58;0.40;;;19.40;51.40;;;;;;5009711;28;20393;-82
2021/12/08 00:45:20;;;;;;;3.15;0.70;;;19.40;51.30;;;;;;5008961;28;20068;-82
2021/12/08 00:47:46;;;;;;;2.50;0.52;;;19.40;51.40;;;;;;5009350;28;20054;-82
2021/12/08 00:50:11;;;;;;;1.95;0.40;;;19.40;51.40;;;;;;5009687;28;20111;-83
2021/12/08 00:52:38;;;;;;;1.52;0.50;;;19.40;51.40;;;;;;5009579;28;20046;-84
2021/12/08 00:55:05;;;;;;;1.67;0.50;;;19.40;51.40;;;;;;5009679;28;20046;-82
2021/12/08 00:57:31;;;;;;;2.03;0.88;;;19.40;51.30;;;;;;5009350;28;20077;-83
2021/12/08 00:59:56;;;;;;;2.03;0.55;;;19.40;51.30;;;;;;5008539;28;20086;-83
2021/12/08 01:02:22;;;;;;;1.25;0.43;;;19.40;51.30;;;;;;5008904;28;20057;-83
2021/12/08 01:04:47;;;;;;;0.80;0.35;;;19.40;51.30;;;;;;5008757;28;20456;-82
2021/12/08 01:07:13;;;;;;;3.47;0.50;;;19.40;51.30;;;;;;5008238;28;20050;-83
2021/12/08 01:09:38;;;;;;;1.80;0.35;;;19.40;51.30;;;;;;5008969;28;20054;-83
2021/12/08 01:12:05;;;;;;;1.73;0.50;;;19.40;51.20;;;;;;5008757;28;20048;-83
2021/12/08 01:14:31;;;;;;;1.65;0.50;;;19.40;51.30;;;;;;5008136;28;20402;-82
2021/12/08 01:16:57;;;;;;;2.75;0.43;;;19.40;51.20;;;;;;4992393;28;20125;-82
2021/12/08 01:19:23;;;;;;;1.73;0.45;;;19.40;51.20;;;;;;5008660;28;20199;-82
2021/12/08 01:21:48;;;;;;;2.15;0.52;;;19.40;51.20;;;;;;5008366;28;20060;-82
2021/12/08 01:24:14;;;;;;;1.38;0.40;;;19.30;51.20;;;;;;5008320;28;20072;-82
2021/12/08 01:26:40;;;;;;;2.00;0.50;;;19.30;51.20;;;;;;5008795;28;20140;-82
2021/12/08 01:29:07;;;;;;;1.13;0.30;;;20.20;51.70;;;;;;5008123;28;20096;-82
2021/12/08 01:31:33;;;;;;;0.70;0.43;;;19.40;51.30;;;;;;5008648;28;20151;-82
2021/12/08 01:33:58;;;;;;;1.67;0.50;;;19.40;51.30;;;;;;5008405;28;20702;-82
2021/12/08 01:36:24;;;;;;;0.93;0.30;;;19.30;51.20;;;;;;5008319;28;20042;-82
2021/12/08 01:38:49;;;;;;;2.10;0.50;;;19.40;51.20;;;;;;5008483;28;20444;-82
2021/12/08 01:41:15;;;;;;;1.73;0.45;;;19.40;51.30;;;;;;5008141;28;20053;-82
2021/12/08 01:45:56;;;;;;;1.48;0.47;;;19.40;51.30;;;;;;5008202;28;20085;-82
2021/12/08 01:46:29;;;;;;;1.15;0.50;;;19.60;51.40;;;;;;5007912;28;20358;-82
2021/12/08 01:48:57;;;;;;;0.88;0.30;;;19.40;51.30;;;;;;5008142;28;20062;-82
2021/12/08 01:51:25;;;;;;;1.42;0.50;;;19.50;51.40;;;;;;5007856;28;20049;-82
2021/12/08 01:53:52;;;;;;;1.67;0.57;;;19.60;51.50;;;;;;5008195;28;20045;-82
2021/12/08 01:56:18;;;;;;;1.58;0.40;;;19.30;51.30;;;;;;5007845;28;20069;-82
2021/12/08 01:58:44;;;;;;;0.88;0.40;;;19.40;51.30;;;;;;5006781;28;20046;-82
2021/12/08 02:01:12;;;;;;;1.25;0.30;;;19.40;51.30;;;;;;5008427;28;20057;-83
2021/12/08 02:03:38;;;;;;;1.40;0.40;;;19.40;51.30;;;;;;5007839;28;20107;-82
2021/12/08 02:06:06;;;;;;;1.33;0.30;;;19.40;51.40;;;;;;5007733;28;20068;-82
2021/12/08 02:08:31;;;;;;;0.52;0.22;;;19.40;51.40;;;;;;5008062;28;20049;-82
2021/12/08 02:10:58;;;;;;;1.60;0.30;;;19.40;51.40;;;;;;5006709;28;20066;-82
2021/12/08 02:13:24;;;;;;;1.30;0.32;;;20.00;51.70;;;;;;5007838;28;20056;-82
2021/12/08 02:15:50;;;;;;;0.98;0.30;;;19.40;51.40;;;;;;4991794;28;20486;-82
2021/12/08 02:18:15;;;;;;;1.67;0.40;;;19.40;51.40;;;;;;5007403;28;20034;-82
2021/12/08 02:20:43;;;;;;;1.70;0.50;;;19.40;51.40;;;;;;5008038;28;20050;-82
2021/12/08 02:23:09;;;;;;;1.70;0.40;;;19.40;51.30;;;;;;5008037;28;20056;-82
2021/12/08 02:25:35;;;;;;;1.73;0.40;;;19.40;51.40;;;;;;5007842;28;20038;-82
2021/12/08 02:28:01;;;;;;;1.60;0.40;;;19.40;51.40;;;;;;5008366;28;20054;-82
2021/12/08 02:46:52;;;;;;;2.10;0.40;;;19.40;51.30;;;;;;5007605;28;20061;-82
2021/12/08 02:49:19;;;;;;;1.63;0.30;;;20.30;51.90;;;;;;5007755;28;20502;-82
2021/12/08 02:51:45;;;;;;;0.82;0.30;;;19.40;51.30;;;;;;5007328;28;20060;-82
2021/12/08 02:54:11;;;;;;;1.45;0.30;;;19.40;51.30;;;;;;5007822;28;20045;-82
2021/12/08 02:56:36;;;;;;;1.58;0.47;;;19.40;51.30;;;;;;5009058;28;20042;-82
2021/12/08 02:59:02;;;;;;;1.08;0.40;;;19.60;51.40;;;;;;5010718;28;20042;-82
2021/12/08 03:01:28;;;;;;;1.27;0.30;;;19.40;51.20;;;;;;5011602;28;20045;-82
2021/12/08 03:03:54;;;;;;;1.25;0.30;;;19.40;51.30;;;;;;5010969;28;20052;-82
2021/12/08 03:06:20;;;;;;;1.05;0.25;;;20.30;51.80;;;;;;5010691;28;20049;-82
2021/12/08 03:08:46;;;;;;;1.08;0.38;;;19.40;51.30;;;;;;5011008;28;20144;-82
2021/12/08 03:11:12;;;;;;;0.90;0.30;;;19.40;51.30;;;;;;4994622;28;20481;-82
2021/12/08 03:13:41;;;;;;;1.38;0.30;;;19.40;51.30;;;;;;5010965;28;20505;-81
2021/12/08 03:16:07;;;;;;;0.73;0.20;;;19.80;51.60;;;;;;4989849;28;20041;-82
2021/12/08 03:18:35;;;;;;;1.00;0.40;;;19.50;51.40;;;;;;4771288;28;5002285;-82
2021/12/08 03:21:02;;;;;;;0.52;0.30;;;19.50;51.40;;;;;;5008212;28;20112;-82
2021/12/08 03:23:38;;;;;;;2.03;0.30;;;19.50;51.40;;;;;;4985389;28;20429;-82
2021/12/08 03:26:06;;;;;;;1.17;0.30;;;19.50;51.40;;;;;;4991550;28;20425;-82
2021/12/08 03:28:36;;;;;;;0.50;0.20;;;19.50;51.50;;;;;;4993535;28;20061;-82
2021/12/08 03:31:08;;;;;;;0.73;0.20;;;19.40;51.30;;;;;;4491222;28;10001381;-82
2021/12/08 03:33:34;;;;;;;0.77;0.20;;;19.50;51.40;;;;;;5000054;28;20061;-83
2021/12/08 03:36:00;;;;;;;1.85;0.30;;;19.50;51.40;;;;;;5010379;28;20062;-82
2021/12/08 03:38:26;;;;;;;1.23;0.30;;;19.50;51.40;;;;;;5010153;28;20486;-82
2021/12/08 03:40:52;;;;;;;1.08;0.40;;;19.50;51.30;;;;;;5010008;28;20052;-82
2021/12/08 03:43:17;;;;;;;1.10;0.40;;;19.50;51.30;;;;;;5010632;28;20041;-82
2021/12/08 03:45:46;;;;;;;1.52;0.30;;;19.50;51.30;;;;;;5010413;28;20504;-82
2021/12/08 03:48:15;;;;;;;0.40;0.20;;;19.50;51.30;;;;;;4998045;28;20179;-82
2021/12/08 03:50:42;;;;;;;0.88;0.30;;;19.50;51.30;;;;;;5006422;28;20136;-82
2021/12/08 03:53:08;;;;;;;1.05;0.30;;;19.50;51.30;;;;;;5010734;28;20053;-82
2021/12/08 03:55:34;;;;;;;0.50;0.20;;;19.50;51.30;;;;;;5010025;28;20470;-83
2021/12/08 03:57:59;;;;;;;1.77;0.40;;;19.50;51.30;;;;;;5010008;28;20046;-82
2021/12/08 04:00:27;;;;;;;0.43;0.20;;;19.50;51.30;;;;;;5009959;28;20469;-82
2021/12/08 04:02:53;;;;;;;0.40;0.20;;;19.50;51.30;;;;;;5009916;28;20736;-82
2021/12/08 04:05:22;;;;;;;0.80;0.28;;;19.50;51.30;;;;;;5009043;28;20112;-82
2021/12/08 04:07:48;;;;;;;1.08;0.40;;;19.50;51.30;;;;;;5009587;28;20454;-82
2021/12/08 04:10:19;;;;;;;0.70;0.30;;;19.50;51.20;;;;;;5009826;28;20053;-82
2021/12/08 04:12:47;;;;;;;1.15;0.35;;;19.50;51.30;;;;;;5009895;28;20042;-80
2021/12/08 04:15:13;;;;;;;0.73;0.20;;;19.50;51.20;;;;;;5010156;28;20107;-81
2021/12/08 04:17:42;;;;;;;0.95;0.25;;;19.50;51.20;;;;;;5009600;28;20099;-81
2021/12/08 04:20:32;;;;;;;0.55;0.25;;;19.50;51.20;;;;;;5010323;28;20180;-81
2021/12/08 04:22:58;;;;;;;1.15;0.22;;;19.50;51.30;;;;;;5009554;28;20053;-81
2021/12/08 04:25:26;;;;;;;1.00;0.20;;;19.50;51.30;;;;;;5009748;28;20045;-81
2021/12/08 04:27:53;;;;;;;0.73;0.30;;;19.50;51.20;;;;;;5009721;28;20084;-81
2021/12/08 04:30:28;;;;;;;1.25;0.30;;;19.50;51.20;;;;;;5009293;28;20149;-80
2021/12/08 04:32:54;;;;;;;0.82;0.30;;;19.50;51.30;;;;;;5009394;28;20045;-81
2021/12/08 04:35:21;;;;;;;1.02;0.20;;;19.50;51.30;;;;;;5009590;28;20498;-81
2021/12/08 04:37:50;;;;;;;1.20;0.30;;;19.50;51.30;;;;;;5006172;28;20109;-81
2021/12/08 04:40:37;;;;;;;1.30;0.38;;;19.50;51.30;;;;;;5009276;28;20045;-81
2021/12/08 04:43:29;;;;;;;0.57;0.20;;;19.50;51.30;;;;;;5009539;28;20045;-81
2021/12/08 04:46:17;;;;;;;0.50;0.20;;;19.50;51.30;;;;;;5008937;28;20656;-81
2021/12/08 04:49:18;;;;;;;1.30;0.30;;;19.50;51.30;;;;;;5009584;28;20565;-81
2021/12/08 05:08:21;;;;;;;0.70;0.30;;;19.50;51.30;;;;;;4994877;28;20058;-80
2021/12/08 05:10:47;;;;;;;0.77;0.30;;;19.50;51.30;;;;;;5009335;28;20085;-80
2021/12/08 05:13:13;;;;;;;0.90;0.30;;;19.50;51.30;;;;;;5008777;28;20506;-82
2021/12/08 05:15:41;;;;;;;0.95;0.25;;;19.50;51.20;;;;;;5008654;28;20599;-82
2021/12/08 05:18:10;;;;;;;1.02;0.20;;;19.50;51.20;;;;;;5009370;28;20089;-82
2021/12/08 05:20:56;;;;;;;0.77;0.22;;;19.50;51.30;;;;;;5007303;28;20066;-83
2021/12/08 05:23:30;;;;;;;0.40;0.22;;;19.50;51.90;;;;;;5008608;28;20046;-82
2021/12/08 05:25:56;;;;;;;0.70;0.28;;;19.50;51.30;;;;;;5008845;28;20559;-82
2021/12/08 05:28:22;;;;;;;0.50;0.30;;;19.50;51.30;;;;;;5008276;28;20049;-82
2021/12/08 05:31:00;;;;;;;0.90;0.22;;;19.50;51.30;;;;;;4984028;28;20426;-82
2021/12/08 05:33:26;;;;;;;0.70;0.30;;;19.50;51.30;;;;;;5008518;28;20046;-80
2021/12/08 05:35:51;;;;;;;0.50;0.30;;;19.50;51.30;;;;;;5008114;28;20136;-82
2021/12/08 05:38:17;;;;;;;1.02;0.30;;;19.50;51.30;;;;;;5009933;28;20091;-82
2021/12/08 05:40:52;;;;;;;0.60;0.20;;;19.50;51.30;;;;;;5008196;28;20058;-82
2021/12/08 05:43:18;;;;;;;0.43;0.20;;;19.50;51.30;;;;;;5008547;28;20068;-82
2021/12/08 05:45:44;;;;;;;0.73;0.15;;;19.50;51.30;;;;;;5008341;28;20487;-82
2021/12/08 05:48:09;;;;;;;0.70;0.20;;;19.50;51.30;;;;;;5008228;28;20137;-83
2021/12/08 05:50:41;;;;;;;0.70;0.30;;;19.50;51.30;;;;;;5008523;28;20057;-83
2021/12/08 05:53:06;;;;;;;1.27;0.20;;;19.50;51.30;;;;;;5008834;28;20050;-82
2021/12/08 05:55:32;;;;;;;0.88;0.30;;;19.50;51.30;;;;;;5008180;28;20045;-83
2021/12/08 05:57:58;;;;;;;0.63;0.20;;;19.50;51.30;;;;;;5008512;28;20081;-81
2021/12/08 06:00:31;;;;;;;1.23;0.38;;;19.50;51.30;;;;;;5008456;28;20133;-82
2021/12/08 06:02:57;;;;;;;0.73;0.20;;;19.50;51.30;;;;;;5007743;28;20104;-82
2021/12/08 06:05:25;;;;;;;1.13;0.40;;;19.60;51.40;;;;;;5007887;28;20045;-81
2021/12/08 06:07:51;;;;;;;0.90;0.30;;;19.60;51.30;;;;;;5008240;28;20038;-82
2021/12/08 06:10:19;;;;;;;1.23;0.20;;;19.60;51.40;;;;;;5007818;28;20085;-82
2021/12/08 06:12:45;;;;;;;0.98;0.20;;;19.60;51.30;;;;;;5008598;28;20100;-82
2021/12/08 06:15:11;;;;;;;0.57;0.20;;;19.60;51.30;;;;;;5009865;28;20054;-76
2021/12/08 06:17:37;;;;;;;0.57;0.22;;;19.50;51.30;;;;;;5007817;28;20449;-83
2021/12/08 06:20:06;;;;;;;0.60;0.20;;;20.10;51.60;;;;;;5007967;28;20065;-83
2021/12/08 06:22:32;;;;;;;1.23;0.30;;;19.50;51.30;;;;;;5007440;28;20053;-81
2021/12/08 06:24:57;;;;;;;1.00;0.30;;;19.50;51.30;;;;;;5007623;28;20057;-81
2021/12/08 06:27:23;;;;;;;0.88;0.20;;;19.50;51.30;;;;;;5008562;28;20042;-82
2021/12/08 06:29:49;;;;;;;0.93;0.28;;;19.60;51.30;;;;;;5004120;28;20066;-82
2021/12/08 06:32:14;;;;;;;1.48;0.40;;;20.90;52.70;;;;;;4999675;28;20046;-81
2021/12/08 06:34:42;;;;;;;2.20;0.30;;;19.50;52.00;;;;;;4995634;28;20050;-81
2021/12/08 06:37:13;;;;;;;1.48;0.30;;;19.60;51.30;;;;;;5002129;28;20094;-80
2021/12/08 06:39:45;;;;;;;1.15;0.30;;;19.50;51.20;;;;;;4997792;28;20058;-80
2021/12/08 06:42:15;;;;;;;0.90;0.22;;;19.50;51.30;;;;;;5001735;28;20058;-81
2021/12/08 06:44:43;;;;;;;0.32;0.20;;;19.60;51.30;;;;;;4999982;28;20058;-81
2021/12/08 06:47:11;;;;;;;0.75;0.20;;;19.60;51.30;;;;;;4991993;28;20047;-81
2021/12/08 06:49:37;;;;;;;0.82;0.20;;;19.50;51.20;;;;;;4992271;28;20463;-81
2021/12/08 06:52:14;;;;;;;0.82;0.20;;;19.50;51.20;;;;;;4991430;28;20080;-80
2021/12/08 06:55:09;;;;;;;1.10;0.30;;;19.50;51.20;;;;;;4990068;28;20081;-81
2021/12/08 06:57:37;;;;;;;0.47;0.10;;;19.50;51.30;;;;;;4990820;28;20057;-81
2021/12/08 07:00:24;;;;;;;0.60;0.22;;;19.50;51.30;;;;;;4991539;28;20732;-81
2021/12/08 07:03:01;;;;;;;2.30;0.47;;;19.50;51.30;;;;;;5018191;28;149857;-82
2021/12/08 07:05:31;;;;;;;0.90;0.30;;;19.50;51.20;;;;;;4989685;28;20054;-81
2021/12/08 07:08:05;;;;;;;1.35;0.20;;;19.50;51.30;;;;;;4991493;28;20054;-81
2021/12/08 07:10:39;;;;;;;0.60;0.20;;;19.50;51.30;;;;;;4991817;28;20081;-81
2021/12/08 07:13:27;;;;;;;2.08;0.50;;;19.50;51.30;;;;;;4990305;28;20140;-81
2021/12/08 07:15:57;;;;;;;1.10;0.30;;;19.50;51.30;;;;;;5025037;28;20061;-81
2021/12/08 07:18:38;;;;;;;0.43;0.20;;;19.50;51.30;;;;;;5036842;28;20054;-81
2021/12/08 07:21:04;;;;;;;1.25;0.20;;;19.50;51.30;;;;;;5010874;28;20061;-81
2021/12/08 07:23:36;;;;;;;0.98;0.30;;;19.50;51.20;;;;;;5006214;28;20583;-81
2021/12/08 07:26:04;;;;;;;;;;;19.50;51.30;;;;;;4972479;28;20049;-76
2021/12/08 07:28:29;;;;;;;1.30;0.28;;;19.50;51.30;;;;;;5012272;28;19932;-80
2021/12/08 07:31:08;;;;;;;1.08;0.30;;;19.50;51.30;;;;;;4998397;28;20058;-80
2021/12/08 07:33:33;;;;;;;1.55;0.30;;;19.50;51.30;;;;;;5000938;28;20072;-80
2021/12/08 07:36:01;;;;;;;1.05;0.30;;;19.70;51.40;;;;;;5002633;28;20409;-81
2021/12/08 07:38:28;;;;;;;0.70;0.30;;;19.50;51.30;;;;;;5010810;28;20057;-82
2021/12/08 07:41:10;;;;;;;1.70;0.30;;;19.50;51.30;;;;;;5010240;28;20466;-81
2021/12/08 07:43:38;;;;;;;1.33;0.40;;;19.50;51.30;;;;;;5007872;28;20062;-81
2021/12/08 07:46:07;;;;;;;1.02;0.30;;;19.50;51.30;;;;;;5009843;28;20038;-82
2021/12/08 07:48:44;;;;;;;0.90;0.30;;;19.50;51.30;;;;;;5011253;28;20088;-81
2021/12/08 07:51:18;;;;;;;0.93;0.30;;;19.50;51.20;;;;;;5010247;28;20058;-81
2021/12/08 07:53:43;;;;;;;0.98;0.22;;;19.50;51.20;;;;;;5003405;28;20058;-80
2021/12/08 07:56:10;;;;;;;1.30;0.25;;;19.50;51.30;;;;;;5010305;28;20127;-80
2021/12/08 07:58:37;;;;;;;1.20;0.40;;;19.50;51.20;;;;;;5010384;28;20042;-80
2021/12/08 08:01:09;;;;;;;0.63;0.20;;;19.50;51.30;;;;;;5009833;28;20157;-80
2021/12/08 08:03:34;;;;;;;0.75;0.30;;;19.50;51.30;;;;;;5009852;28;20440;-80
2021/12/08 08:06:04;;;;;;;3.10;0.50;;;19.50;51.80;;;;;;4993797;28;20669;-82
2021/12/08 08:08:32;;;;;;;1.08;0.25;;;19.50;51.30;;;;;;5009502;28;20135;-81
2021/12/08 08:11:02;;;;;;;1.80;0.30;;;19.50;51.20;;;;;;5009811;28;20049;-81
2021/12/08 08:13:28;;;;;;;1.20;0.30;;;19.50;51.60;;;;;;5008255;28;20306;-81
2021/12/08 08:16:07;;;;;;;0.98;0.30;;;19.50;51.30;;;;;;5001313;28;20615;-82
2021/12/08 08:18:38;;;;;;;1.35;0.30;;;19.50;51.20;;;;;;4995698;28;20406;-82
2021/12/08 08:21:14;;;;;;;1.08;0.28;;;19.50;51.30;;;;;;5005752;28;20054;-86
2021/12/08 08:23:46;;;;;;;1.10;0.20;;;20.60;51.80;;;;;;5002223;28;20537;-82
2021/12/08 08:26:12;;;;;;;1.52;0.30;;;20.70;52.00;;;;;;4978120;28;20057;-79
2021/12/08 08:28:38;;;;;;;3.72;0.50;;;19.50;51.10;;;;;;4985700;28;20038;-78
2021/12/08 08:31:12;;;;;;;3.35;0.93;;;19.40;50.50;;;;;;5004072;28;20058;-76
2021/12/08 08:33:39;;;;;;;3.72;0.80;;;19.40;50.30;;;;;;5009896;28;20458;-78
2021/12/08 08:36:08;;;;;;;2.30;0.93;;;19.40;50.30;;;;;;4995173;28;20050;-78
2021/12/08 08:38:37;;;;;;;4.03;0.55;;;19.40;50.30;;;;;;4989892;28;20510;-78
2021/12/08 08:41:25;;;;;;;3.22;0.57;;;19.40;50.30;;;;;;4989987;28;20058;-79
2021/12/08 08:43:51;;;;;;;1.98;0.50;;;19.40;50.20;;;;;;4999626;28;20046;-78
2021/12/08 08:46:26;;;;;;;2.78;0.50;;;19.40;50.20;;;;;;5004039;28;20474;-78
2021/12/08 08:48:55;;;;;;;2.85;0.80;;;19.30;50.10;;;;;;4993577;28;20132;-77
2021/12/08 08:51:28;;;;;;;2.60;0.60;;;19.40;50.10;;;;;;4998439;28;20507;-77
2021/12/08 08:53:55;;;;;;;2.47;0.50;;;19.30;50.10;;;;;;4989244;28;20046;-84
2021/12/08 08:56:27;;;;;;;10.60;0.88;;;19.40;50.10;;;;;;5002576;28;20531;-76
2021/12/08 08:58:55;;;;;;;4.63;0.60;;;19.40;50.50;;;;;;5001911;28;20085;-79
2021/12/08 09:01:27;;;;;;;3.28;0.50;;;19.40;50.70;;;;;;5040972;28;20077;-79
2021/12/08 09:03:59;;;;;;;4.70;0.60;;;19.30;50.80;;;;;;4991061;28;20050;-79
2021/12/08 09:06:31;;;;;;;2.33;0.40;;;19.30;50.80;;;;;;4990518;28;20058;-78
2021/12/08 09:08:57;;;;;;;4.00;0.63;;;19.40;50.90;;;;;;4985150;28;20057;-78
2021/12/08 09:11:25;;;;;;;2.15;0.40;;;19.40;50.90;;;;;;5006580;28;20038;-80
2021/12/08 09:14:00;;;;;;;3.35;0.70;;;19.40;50.90;;;;;;5007133;28;20061;-79
2021/12/08 09:17:00;;;;;;;3.03;0.55;;;19.40;50.90;;;;;;5007313;28;20050;-78
2021/12/08 09:19:36;;;;;;;3.55;0.77;;;19.50;50.90;;;;;;4976456;28;20069;-79
2021/12/08 09:22:26;;;;;;;2.65;0.50;;;19.20;50.80;;;;;;4977281;28;20425;-79
2021/12/08 09:25:05;;;;;;;2.10;0.35;;;19.50;50.90;;;;;;4977014;28;20058;-78
2021/12/08 09:27:33;;;;;;;2.20;0.57;;;19.50;50.90;;;;;;4982797;28;20138;-80
2021/12/08 09:30:20;;;;;;;2.40;0.50;;;19.50;50.80;;;;;;4960367;28;20058;-78
2021/12/08 09:32:49;;;;;;;2.05;0.50;;;19.50;50.80;;;;;;4971861;28;20038;-79
2021/12/08 09:35:20;;;;;;;1.30;0.30;;;19.60;50.90;;;;;;5008070;28;20081;-78
2021/12/08 09:37:51;;;;;;;1.73;0.47;;;19.50;51.50;;;;;;5008035;28;20826;-79
2021/12/08 09:40:33;;;;;;;2.05;0.43;;;19.50;50.80;;;;;;5007546;28;20136;-79
2021/12/08 09:43:05;;;;;;;2.42;0.50;;;19.60;50.80;;;;;;5005944;28;20124;-78
2021/12/08 09:45:37;;;;;;;3.33;0.50;;;19.60;50.80;;;;;;5000091;28;20149;-78
2021/12/08 09:48:04;;;;;;;3.72;0.60;;;19.60;50.70;;;;;;4988032;28;20060;-78
2021/12/08 09:50:29;;;;;;;2.35;0.63;;;19.60;50.70;;;;;;5007231;28;20053;-78
2021/12/08 09:52:55;;;;;;;2.10;0.50;;;19.60;50.70;;;;;;5008004;28;20539;-78
2021/12/08 09:55:21;;;;;;;1.83;0.40;;;19.60;51.30;;;;;;4931110;28;20064;-79
2021/12/08 09:57:47;;;;;;;3.00;0.47;;;19.60;50.60;;;;;;5008468;28;20077;-79
2021/12/08 10:00:29;;;;;;;2.20;0.40;;;19.60;50.50;;;;;;5004584;28;20049;-78
2021/12/08 10:02:58;;;;;;;;;;;19.60;50.60;;;;;;4988566;28;20084;-78
2021/12/08 10:05:25;;;;;;;1.48;0.35;;;19.60;50.60;;;;;;4979211;28;19957;-79
2021/12/08 10:07:51;;;;;;;3.47;0.40;;;19.60;50.70;;;;;;4994437;28;20091;-80
2021/12/08 10:10:17;;;;;;;2.50;0.50;;;21.20;51.40;;;;;;4994621;28;20085;-80
2021/12/08 10:12:42;;;;;;;7.47;0.90;;;19.60;50.50;;;;;;5002590;28;20065;-81
2021/12/08 10:15:10;;;;;;;4.75;0.80;;;19.60;50.30;;;;;;5010116;28;20050;-81
2021/12/08 10:17:55;;;;;;;4.60;0.80;;;19.60;50.20;;;;;;5010592;28;20751;-81
2021/12/08 10:20:36;;;;;;;4.05;0.47;;;19.50;50.60;;;;;;5011614;28;20126;-80
2021/12/08 10:23:09;;;;;;;3.28;0.47;;;19.50;50.10;;;;;;4996346;28;20500;-81
2021/12/08 10:25:37;;;;;;;4.05;0.70;;;19.50;50.30;;;;;;4994269;28;20069;-79
2021/12/08 10:28:12;;;;;;;5.25;0.60;;;19.50;50.20;;;;;;5013852;28;20049;-81
2021/12/08 10:30:45;;;;;;;2.85;0.50;;;19.50;50.30;;;;;;5001364;28;20490;-78
2021/12/08 10:34:23;;;;;;;1.95;0.50;;;19.50;50.30;;;;;;4995008;28;20050;-81
2021/12/08 10:39:14;;;;;;;2.17;0.40;;;19.50;50.30;;;;;;5014270;28;20145;-83
2021/12/08 10:42:03;;;;;;;4.65;0.50;;;19.50;50.40;;;;;;5005785;28;20057;-83
2021/12/08 10:44:32;;;;;;;2.80;0.50;;;19.50;50.40;;;;;;4994061;28;20129;-83
2021/12/08 10:46:58;;;;;;;1.95;0.40;;;19.50;50.50;;;;;;5013588;28;20132;-83
2021/12/08 10:54:40;;;;;;;3.08;0.50;;;19.60;50.50;;;;;;4969615;28;20419;-82
2021/12/08 10:57:24;;;;;;;2.53;0.30;;;19.60;50.50;;;;;;4971188;28;20051;-81
2021/12/08 10:59:54;;;;;;;1.70;0.40;;;19.60;50.60;;;;;;4776838;28;5092535;-84
2021/12/08 11:02:54;;;;;;;1.90;0.35;;;19.60;50.60;;;;;;4964532;28;20066;-85
2021/12/08 11:05:26;;;;;;;1.75;0.40;;;19.60;50.50;;;;;;4939537;28;20086;-83
2021/12/08 11:08:19;;;;;;;1.73;0.40;;;19.60;50.50;;;;;;4935608;29;20090;-84
2021/12/08 11:10:54;;;;;;;2.92;0.40;;;19.70;50.50;;;;;;4953059;28;20785;-85
2021/12/08 11:13:25;;;;;;;2.08;0.40;;;19.70;50.50;;;;;;4973857;28;20062;-84
2021/12/08 11:16:15;;;;;;;2.05;0.47;;;19.70;50.50;;;;;;4974719;28;20046;-85
2021/12/08 11:18:49;;;;;;;1.88;0.40;;;19.70;50.50;;;;;;4958840;28;20066;-85
2021/12/08 11:21:20;;;;;;;2.28;0.40;;;19.70;50.50;;;;;;5010724;28;20073;-83
2021/12/08 11:23:48;;;;;;;2.25;0.63;;;19.70;50.50;;;;;;5010866;28;20041;-81
2021/12/08 11:26:14;;;;;;;2.42;0.57;;;20.50;51.00;;;;;;5004916;28;20049;-82
2021/12/08 11:28:40;;;;;;;1.48;0.40;;;19.80;50.50;;;;;;5010446;28;20038;-82
2021/12/08 11:31:11;;;;;;;1.40;0.40;;;21.00;51.10;;;;;;5010773;28;20046;-82
2021/12/08 11:33:41;;;;;;;3.20;0.57;;;19.80;50.40;;;;;;5010220;28;20042;-82
2021/12/08 11:36:12;;;;;;;1.60;0.35;;;19.80;50.40;;;;;;5010706;28;20062;-83
2021/12/08 11:38:38;;;;;;;2.03;0.43;;;19.80;50.40;;;;;;5010765;28;20113;-82
2021/12/08 11:41:39;;;;;;;1.85;0.40;;;19.80;50.40;;;;;;5007804;28;20800;-82
2021/12/08 11:44:16;;;;;;;2.97;0.50;;;19.80;50.40;;;;;;4991355;28;20690;-83
2021/12/08 11:46:57;;;;;;;1.55;0.35;;;19.80;50.40;;;;;;4974379;28;20478;-82
2021/12/08 11:49:22;;;;;;;3.60;0.55;;;19.80;50.40;;;;;;5033249;28;20486;-82
2021/12/08 11:52:06;;;;;;;2.75;0.50;;;19.80;50.30;;;;;;5006657;28;20040;-82
2021/12/08 11:54:51;;;;;;;2.63;0.40;;;19.80;50.10;;;;;;5002095;28;20050;-83
2021/12/08 11:57:19;;;;;;;2.47;0.40;;;19.80;50.20;;;;;;5026190;28;20482;-82
2021/12/08 11:59:53;;;;;;;3.47;0.50;;;19.70;50.10;;;;;;5009884;28;20052;-83
2021/12/08 12:02:21;;;;;;;2.47;0.45;;;19.70;49.90;;;;;;5042267;28;20120;-83
2021/12/08 12:04:48;;;;;;;2.97;0.63;;;19.70;50.00;;;;;;5041461;28;20058;-83
2021/12/08 12:07:14;;;;;;;3.45;0.40;;;19.70;49.80;;;;;;5009118;28;20054;-83
2021/12/08 12:09:40;;;;;;;1.67;0.43;;;19.70;49.90;;;;;;5009787;28;20136;-83
2021/12/08 12:12:06;;;;;;;2.67;0.77;;;19.70;49.90;;;;;;5010176;28;20069;-79
2021/12/08 12:14:32;;;;;;;2.75;0.47;;;19.70;49.90;;;;;;5009127;28;20124;-82
2021/12/08 12:16:57;;;;;;;1.38;0.40;;;19.60;49.90;;;;;;5009852;28;20037;-82
2021/12/08 12:19:24;;;;;;;4.32;0.52;;;19.60;49.80;;;;;;4320542;28;20002741;-81
2021/12/08 12:22:17;;;;;;;2.80;0.73;;;19.90;50.00;;;;;;5025828;28;20527;-82
2021/12/08 12:25:01;;;;;;;2.50;0.50;;;19.60;49.90;;;;;;4993349;28;20042;-82
2021/12/08 12:27:58;;;;;;;1.38;0.40;;;19.60;49.90;;;;;;5003326;28;20128;-83
2021/12/08 12:30:30;;;;;;;3.03;0.63;;;19.50;49.90;;;;;;5016061;28;20092;-84
2021/12/08 12:32:55;;;;;;;2.63;0.40;;;19.50;49.90;;;;;;4996366;28;20112;-84
2021/12/08 12:35:23;;;;;;;3.08;0.55;;;19.50;49.90;;;;;;5003154;28;20054;-82
2021/12/08 12:37:53;;;;;;;3.25;0.47;;;19.50;50.10;;;;;;5007897;28;20060;-81
2021/12/08 12:40:19;;;;;;;3.03;0.70;;;19.50;50.20;;;;;;4987512;28;20077;-82
2021/12/08 12:42:57;;;;;;;1.17;0.30;;;19.50;50.10;;;;;;4232433;28;10000329;-82
2021/12/08 12:45:24;;;;;;;1.70;0.35;;;19.50;50.20;;;;;;5000633;28;20050;-81
2021/12/08 12:48:06;;;;;;;1.35;0.32;;;19.40;50.20;;;;;;5008745;28;20131;-82
2021/12/08 12:50:35;;;;;;;1.95;0.40;;;19.40;50.90;;;;;;5006281;28;20138;-83
2021/12/08 12:53:01;;;;;;;2.72;0.40;;;19.40;50.30;;;;;;5007362;28;20045;-79
2021/12/08 12:55:31;;;;;;;2.63;0.40;;;19.40;50.30;;;;;;5008669;28;20050;-80
2021/12/08 13:00:54;;;;;;;2.38;0.65;;;19.80;50.60;;;;;;4993226;28;20836;-81
2021/12/08 13:03:40;;;;;;;3.05;0.40;;;19.40;50.40;;;;;;4991579;28;20081;-79
2021/12/08 13:06:06;;;;;;;4.32;0.50;;;20.90;51.20;;;;;;4999914;28;20070;-80
2021/12/08 13:08:35;;;;;;;1.40;0.35;;;19.40;50.50;;;;;;4982617;28;20046;-82
2021/12/08 13:11:05;;;;;;;3.15;0.57;;;19.40;50.50;;;;;;5004528;28;20053;-80
2021/12/08 13:13:50;;;;;;;2.75;0.73;;;19.40;50.50;;;;;;5008531;28;20539;-78
2021/12/08 13:16:22;;;;;;;6.47;0.65;;;19.40;50.50;;;;;;5010327;28;20053;-81
2021/12/08 13:19:00;;;;;;;4.13;0.60;;;19.50;50.60;;;;;;5004743;28;20097;-82
2021/12/08 13:21:44;;;;;;;3.03;0.55;;;19.50;50.60;;;;;;5004894;28;20058;-82
2021/12/08 13:24:34;;;;;;;1.30;0.38;;;19.50;50.70;;;;;;4988735;28;20524;-82
2021/12/08 13:27:01;;;;;;;2.25;0.38;;;19.50;50.70;;;;;;4996063;28;20502;-82
2021/12/08 13:29:27;;;;;;;1.90;0.30;;;19.50;50.70;;;;;;4989028;28;20050;-83
2021/12/08 13:32:09;;;;;;;2.60;0.40;;;19.50;50.70;;;;;;4988560;28;20445;-84
2021/12/08 13:34:42;;;;;;;1.40;0.30;;;19.50;50.70;;;;;;4991046;28;20571;-82
2021/12/08 13:37:19;;;;;;;3.13;0.45;;;19.60;50.80;;;;;;5006421;28;20086;-83
2021/12/08 13:43:05;;;;;;;1.70;0.30;;;19.60;50.90;;;;;;4991988;22;20483;-82
2021/12/08 13:46:33;;;;;;;2.03;0.40;;;18.10;50.30;;;;;;4972272;28;20066;-82
2021/12/08 13:49:16;;;;;;;2.42;0.50;;;20.00;51.00;;;;;;4988056;28;20092;-83
2021/12/08 13:51:44;;;;;;;2.85;0.60;;;19.10;50.50;;;;;;4988921;28;20168;-82
2021/12/08 13:54:30;;;;;;;2.35;0.60;;;19.60;50.70;;;;;;4971796;28;20116;-83
2021/12/08 13:56:56;;;;;;;3.20;0.60;;;19.60;50.70;;;;;;4988500;28;20042;-81